sensor_id;sensor_type;location;lat;lon;timestamp;P1;durP1;ratioP1;P2;durP2;ratioP2
58553;SDS011;48119;53.218;6.576;2023-08-30T00:00:55;11.57;;;10.40;;
58553;SDS011;48119;53.218;6.576;2023-08-30T00:03:39;12.38;;;10.18;;
58553;SDS011;48119;53.218;6.576;2023-08-30T00:06:17;12.00;;;10.25;;
58553;SDS011;48119;53.218;6.576;2023-08-30T00:12:01;11.07;;;9.95;;
58553;SDS011;48119;53.218;6.576;2023-08-30T00:14:39;13.93;;;10.27;;
58553;SDS011;48119;53.218;6.576;2023-08-30T00:17:27;12.48;;;9.68;;
58553;SDS011;48119;53.218;6.576;2023-08-30T00:20:15;11.98;;;9.82;;
58553;SDS011;48119;53.218;6.576;2023-08-30T00:23:06;10.98;;;9.80;;
58553;SDS011;48119;53.218;6.576;2023-08-30T00:25:56;11.35;;;9.88;;
58553;SDS011;48119;53.218;6.576;2023-08-30T00:28:50;13.40;;;9.45;;
58553;SDS011;48119;53.218;6.576;2023-08-30T00:31:37;12.20;;;9.55;;
58553;SDS011;48119;53.218;6.576;2023-08-30T00:34:13;13.70;;;9.68;;
58553;SDS011;48119;53.218;6.576;2023-08-30T00:36:44;11.65;;;9.93;;
58553;SDS011;48119;53.218;6.576;2023-08-30T00:39:21;11.80;;;9.52;;
58553;SDS011;48119;53.218;6.576;2023-08-30T00:42:07;10.25;;;9.25;;
58553;SDS011;48119;53.218;6.576;2023-08-30T00:44:45;11.77;;;9.07;;
58553;SDS011;48119;53.218;6.576;2023-08-30T00:47:19;10.00;;;8.93;;
58553;SDS011;48119;53.218;6.576;2023-08-30T00:50:19;13.30;;;10.50;;
58553;SDS011;48119;53.218;6.576;2023-08-30T00:52:55;11.27;;;9.48;;
58553;SDS011;48119;53.218;6.576;2023-08-30T00:55:26;12.85;;;10.07;;
58553;SDS011;48119;53.218;6.576;2023-08-30T00:57:56;10.82;;;8.85;;
58553;SDS011;48119;53.218;6.576;2023-08-30T01:03:39;11.35;;;8.68;;
58553;SDS011;48119;53.218;6.576;2023-08-30T01:06:08;10.90;;;9.45;;
58553;SDS011;48119;53.218;6.576;2023-08-30T01:08:40;10.80;;;7.95;;
58553;SDS011;48119;53.218;6.576;2023-08-30T01:14:34;10.65;;;7.88;;
58553;SDS011;48119;53.218;6.576;2023-08-30T01:17:50;10.38;;;8.07;;
58553;SDS011;48119;53.218;6.576;2023-08-30T01:20:28;10.88;;;8.48;;
58553;SDS011;48119;53.218;6.576;2023-08-30T01:26:13;11.00;;;8.80;;
58553;SDS011;48119;53.218;6.576;2023-08-30T01:29:01;13.90;;;8.70;;
58553;SDS011;48119;53.218;6.576;2023-08-30T01:31:46;11.20;;;9.00;;
58553;SDS011;48119;53.218;6.576;2023-08-30T01:34:37;9.75;;;7.93;;
58553;SDS011;48119;53.218;6.576;2023-08-30T01:37:27;9.55;;;7.65;;
58553;SDS011;48119;53.218;6.576;2023-08-30T01:39:55;11.13;;;9.02;;
58553;SDS011;48119;53.218;6.576;2023-08-30T01:42:44;11.40;;;7.95;;
58553;SDS011;48119;53.218;6.576;2023-08-30T01:48:30;9.20;;;7.28;;
58553;SDS011;48119;53.218;6.576;2023-08-30T01:51:03;8.57;;;7.68;;
58553;SDS011;48119;53.218;6.576;2023-08-30T01:53:44;9.43;;;7.75;;
58553;SDS011;48119;53.218;6.576;2023-08-30T01:56:13;10.55;;;8.43;;
58553;SDS011;48119;53.218;6.576;2023-08-30T01:59:02;9.57;;;7.65;;
58553;SDS011;48119;53.218;6.576;2023-08-30T02:01:50;9.43;;;7.43;;
58553;SDS011;48119;53.218;6.576;2023-08-30T02:08:29;9.50;;;7.18;;
58553;SDS011;48119;53.218;6.576;2023-08-30T02:10:41;10.30;;;7.85;;
58553;SDS011;48119;53.218;6.576;2023-08-30T02:13:59;11.05;;;7.90;;
58553;SDS011;48119;53.218;6.576;2023-08-30T02:16:52;10.57;;;7.60;;
58553;SDS011;48119;53.218;6.576;2023-08-30T02:19:39;10.63;;;8.48;;
58553;SDS011;48119;53.218;6.576;2023-08-30T02:22:21;9.90;;;7.28;;
58553;SDS011;48119;53.218;6.576;2023-08-30T02:24:58;9.35;;;6.88;;
58553;SDS011;48119;53.218;6.576;2023-08-30T02:27:40;10.15;;;7.03;;
58553;SDS011;48119;53.218;6.576;2023-08-30T02:30:11;8.73;;;7.15;;
58553;SDS011;48119;53.218;6.576;2023-08-30T02:32:42;12.07;;;7.88;;
58553;SDS011;48119;53.218;6.576;2023-08-30T02:35:27;9.90;;;8.65;;
58553;SDS011;48119;53.218;6.576;2023-08-30T02:37:53;10.85;;;7.32;;
58553;SDS011;48119;53.218;6.576;2023-08-30T02:40:30;9.77;;;7.65;;
58553;SDS011;48119;53.218;6.576;2023-08-30T02:43:19;10.25;;;7.95;;
58553;SDS011;48119;53.218;6.576;2023-08-30T02:46:00;11.05;;;8.18;;
58553;SDS011;48119;53.218;6.576;2023-08-30T02:48:30;9.73;;;7.95;;
58553;SDS011;48119;53.218;6.576;2023-08-30T02:51:26;8.82;;;7.45;;
58553;SDS011;48119;53.218;6.576;2023-08-30T02:54:02;9.35;;;6.80;;
58553;SDS011;48119;53.218;6.576;2023-08-30T02:56:50;10.70;;;7.22;;
58553;SDS011;48119;53.218;6.576;2023-08-30T02:59:24;8.98;;;6.78;;
58553;SDS011;48119;53.218;6.576;2023-08-30T03:02:30;9.13;;;7.32;;
58553;SDS011;48119;53.218;6.576;2023-08-30T03:05:02;8.43;;;7.35;;
58553;SDS011;48119;53.218;6.576;2023-08-30T03:10:47;7.82;;;6.75;;
58553;SDS011;48119;53.218;6.576;2023-08-30T03:13:19;10.00;;;7.05;;
58553;SDS011;48119;53.218;6.576;2023-08-30T03:16:24;10.02;;;6.90;;
58553;SDS011;48119;53.218;6.576;2023-08-30T03:19:05;12.32;;;7.03;;
58553;SDS011;48119;53.218;6.576;2023-08-30T03:21:59;11.38;;;7.20;;
58553;SDS011;48119;53.218;6.576;2023-08-30T03:24:38;9.70;;;7.75;;
58553;SDS011;48119;53.218;6.576;2023-08-30T03:27:15;8.20;;;7.10;;
58553;SDS011;48119;53.218;6.576;2023-08-30T03:29:44;13.23;;;7.53;;
58553;SDS011;48119;53.218;6.576;2023-08-30T03:32:36;7.85;;;7.05;;
58553;SDS011;48119;53.218;6.576;2023-08-30T03:35:15;10.25;;;7.80;;
58553;SDS011;48119;53.218;6.576;2023-08-30T03:37:48;11.35;;;7.85;;
58553;SDS011;48119;53.218;6.576;2023-08-30T03:40:19;10.93;;;8.02;;
58553;SDS011;48119;53.218;6.576;2023-08-30T03:42:48;13.30;;;8.02;;
58553;SDS011;48119;53.218;6.576;2023-08-30T03:45:40;9.68;;;7.40;;
58553;SDS011;48119;53.218;6.576;2023-08-30T03:48:16;10.73;;;7.88;;
58553;SDS011;48119;53.218;6.576;2023-08-30T03:50:46;10.25;;;8.23;;
58553;SDS011;48119;53.218;6.576;2023-08-30T03:53:18;10.23;;;7.35;;
58553;SDS011;48119;53.218;6.576;2023-08-30T03:55:46;10.50;;;8.23;;
58553;SDS011;48119;53.218;6.576;2023-08-30T03:58:19;10.05;;;8.20;;
58553;SDS011;48119;53.218;6.576;2023-08-30T04:00:53;10.85;;;9.07;;
58553;SDS011;48119;53.218;6.576;2023-08-30T04:03:54;10.70;;;8.33;;
58553;SDS011;48119;53.218;6.576;2023-08-30T04:06:32;11.20;;;7.97;;
58553;SDS011;48119;53.218;6.576;2023-08-30T04:09:24;9.25;;;7.88;;
58553;SDS011;48119;53.218;6.576;2023-08-30T04:12:26;11.63;;;8.98;;
58553;SDS011;48119;53.218;6.576;2023-08-30T04:15:02;11.10;;;8.52;;
58553;SDS011;48119;53.218;6.576;2023-08-30T04:17:48;11.27;;;9.45;;
58553;SDS011;48119;53.218;6.576;2023-08-30T04:20:42;10.75;;;8.27;;
58553;SDS011;48119;53.218;6.576;2023-08-30T04:23:19;10.80;;;7.63;;
58553;SDS011;48119;53.218;6.576;2023-08-30T04:29:06;8.80;;;6.93;;
58553;SDS011;48119;53.218;6.576;2023-08-30T04:34:52;11.02;;;8.27;;
58553;SDS011;48119;53.218;6.576;2023-08-30T04:37:29;9.10;;;6.95;;
58553;SDS011;48119;53.218;6.576;2023-08-30T04:40:13;8.40;;;7.35;;
58553;SDS011;48119;53.218;6.576;2023-08-30T04:42:54;10.70;;;7.50;;
58553;SDS011;48119;53.218;6.576;2023-08-30T04:45:31;8.80;;;7.43;;
58553;SDS011;48119;53.218;6.576;2023-08-30T04:48:11;8.80;;;7.25;;
58553;SDS011;48119;53.218;6.576;2023-08-30T04:50:48;9.55;;;7.43;;
58553;SDS011;48119;53.218;6.576;2023-08-30T04:53:29;11.10;;;7.53;;
58553;SDS011;48119;53.218;6.576;2023-08-30T04:56:00;10.30;;;8.30;;
58553;SDS011;48119;53.218;6.576;2023-08-30T04:58:37;11.02;;;7.70;;
58553;SDS011;48119;53.218;6.576;2023-08-30T05:01:03;9.07;;;7.22;;
58553;SDS011;48119;53.218;6.576;2023-08-30T05:03:39;12.63;;;7.75;;
58553;SDS011;48119;53.218;6.576;2023-08-30T05:06:05;11.27;;;7.85;;
58553;SDS011;48119;53.218;6.576;2023-08-30T05:08:33;10.35;;;7.70;;
58553;SDS011;48119;53.218;6.576;2023-08-30T05:14:35;8.93;;;6.82;;
58553;SDS011;48119;53.218;6.576;2023-08-30T05:17:20;9.88;;;7.38;;
58553;SDS011;48119;53.218;6.576;2023-08-30T05:19:57;9.07;;;6.68;;
58553;SDS011;48119;53.218;6.576;2023-08-30T05:22:24;11.93;;;7.32;;
58553;SDS011;48119;53.218;6.576;2023-08-30T05:25:00;9.88;;;7.75;;
58553;SDS011;48119;53.218;6.576;2023-08-30T05:27:27;10.18;;;7.43;;
58553;SDS011;48119;53.218;6.576;2023-08-30T05:30:02;9.05;;;7.53;;
58553;SDS011;48119;53.218;6.576;2023-08-30T05:32:36;10.50;;;7.55;;
58553;SDS011;48119;53.218;6.576;2023-08-30T05:35:07;9.10;;;7.40;;
58553;SDS011;48119;53.218;6.576;2023-08-30T05:37:38;8.85;;;6.63;;
58553;SDS011;48119;53.218;6.576;2023-08-30T05:40:09;9.85;;;6.85;;
58553;SDS011;48119;53.218;6.576;2023-08-30T05:42:36;8.77;;;6.88;;
58553;SDS011;48119;53.218;6.576;2023-08-30T05:45:16;9.73;;;7.47;;
58553;SDS011;48119;53.218;6.576;2023-08-30T05:47:47;8.98;;;7.65;;
58553;SDS011;48119;53.218;6.576;2023-08-30T05:50:18;9.55;;;7.38;;
58553;SDS011;48119;53.218;6.576;2023-08-30T05:52:51;9.02;;;7.22;;
58553;SDS011;48119;53.218;6.576;2023-08-30T05:55:26;11.27;;;7.50;;
58553;SDS011;48119;53.218;6.576;2023-08-30T05:58:10;9.27;;;7.80;;
58553;SDS011;48119;53.218;6.576;2023-08-30T06:00:45;10.52;;;8.13;;
58553;SDS011;48119;53.218;6.576;2023-08-30T06:03:13;10.02;;;7.22;;
58553;SDS011;48119;53.218;6.576;2023-08-30T06:05:48;9.32;;;7.32;;
58553;SDS011;48119;53.218;6.576;2023-08-30T06:08:19;13.88;;;8.95;;
58553;SDS011;48119;53.218;6.576;2023-08-30T06:10:52;17.17;;;8.25;;
58553;SDS011;48119;53.218;6.576;2023-08-30T06:13:20;11.88;;;8.55;;
58553;SDS011;48119;53.218;6.576;2023-08-30T06:15:49;16.17;;;8.38;;
58553;SDS011;48119;53.218;6.576;2023-08-30T06:18:29;11.68;;;7.88;;
58553;SDS011;48119;53.218;6.576;2023-08-30T06:21:09;9.95;;;7.60;;
58553;SDS011;48119;53.218;6.576;2023-08-30T06:23:38;11.85;;;8.35;;
58553;SDS011;48119;53.218;6.576;2023-08-30T06:26:11;12.65;;;8.45;;
58553;SDS011;48119;53.218;6.576;2023-08-30T06:28:40;11.65;;;8.05;;
58553;SDS011;48119;53.218;6.576;2023-08-30T06:31:09;11.02;;;8.00;;
58553;SDS011;48119;53.218;6.576;2023-08-30T06:33:37;8.15;;;7.28;;
58553;SDS011;48119;53.218;6.576;2023-08-30T06:36:30;10.48;;;8.00;;
58553;SDS011;48119;53.218;6.576;2023-08-30T06:39:16;9.97;;;7.57;;
58553;SDS011;48119;53.218;6.576;2023-08-30T06:42:03;12.20;;;8.80;;
58553;SDS011;48119;53.218;6.576;2023-08-30T06:44:34;12.98;;;8.45;;
58553;SDS011;48119;53.218;6.576;2023-08-30T06:47:26;12.55;;;8.75;;
58553;SDS011;48119;53.218;6.576;2023-08-30T06:49:55;9.65;;;7.25;;
58553;SDS011;48119;53.218;6.576;2023-08-30T06:52:24;10.45;;;7.88;;
58553;SDS011;48119;53.218;6.576;2023-08-30T06:54:53;10.00;;;7.93;;
58553;SDS011;48119;53.218;6.576;2023-08-30T06:57:21;11.30;;;7.13;;
58553;SDS011;48119;53.218;6.576;2023-08-30T06:59:50;14.20;;;7.25;;
58553;SDS011;48119;53.218;6.576;2023-08-30T07:02:22;10.48;;;7.70;;
58553;SDS011;48119;53.218;6.576;2023-08-30T07:04:52;10.40;;;7.50;;
58553;SDS011;48119;53.218;6.576;2023-08-30T07:07:39;10.25;;;7.30;;
58553;SDS011;48119;53.218;6.576;2023-08-30T07:10:15;10.52;;;7.07;;
58553;SDS011;48119;53.218;6.576;2023-08-30T07:12:47;15.13;;;7.60;;
58553;SDS011;48119;53.218;6.576;2023-08-30T07:15:19;10.23;;;7.32;;
58553;SDS011;48119;53.218;6.576;2023-08-30T07:18:04;16.52;;;7.78;;
58553;SDS011;48119;53.218;6.576;2023-08-30T07:20:39;12.98;;;7.93;;
58553;SDS011;48119;53.218;6.576;2023-08-30T07:23:13;11.32;;;6.88;;
58553;SDS011;48119;53.218;6.576;2023-08-30T07:25:39;12.45;;;8.35;;
58553;SDS011;48119;53.218;6.576;2023-08-30T07:28:19;14.00;;;7.55;;
58553;SDS011;48119;53.218;6.576;2023-08-30T07:30:52;9.93;;;6.80;;
58553;SDS011;48119;53.218;6.576;2023-08-30T07:33:39;11.18;;;7.50;;
58553;SDS011;48119;53.218;6.576;2023-08-30T07:38:44;10.93;;;7.38;;
58553;SDS011;48119;53.218;6.576;2023-08-30T07:41:10;10.20;;;7.07;;
58553;SDS011;48119;53.218;6.576;2023-08-30T07:43:44;11.35;;;7.15;;
58553;SDS011;48119;53.218;6.576;2023-08-30T07:46:26;10.13;;;6.57;;
58553;SDS011;48119;53.218;6.576;2023-08-30T07:49:02;10.77;;;7.82;;
58553;SDS011;48119;53.218;6.576;2023-08-30T07:51:44;10.02;;;7.05;;
58553;SDS011;48119;53.218;6.576;2023-08-30T07:54:15;9.07;;;6.18;;
58553;SDS011;48119;53.218;6.576;2023-08-30T07:56:46;10.48;;;6.88;;
58553;SDS011;48119;53.218;6.576;2023-08-30T07:59:32;9.80;;;6.07;;
58553;SDS011;48119;53.218;6.576;2023-08-30T08:02:02;10.30;;;5.63;;
58553;SDS011;48119;53.218;6.576;2023-08-30T08:04:31;7.38;;;5.63;;
58553;SDS011;48119;53.218;6.576;2023-08-30T08:07:01;8.20;;;6.18;;
58553;SDS011;48119;53.218;6.576;2023-08-30T08:12:17;11.77;;;6.30;;
58553;SDS011;48119;53.218;6.576;2023-08-30T08:15:01;9.02;;;6.10;;
58553;SDS011;48119;53.218;6.576;2023-08-30T08:17:50;12.85;;;6.80;;
58553;SDS011;48119;53.218;6.576;2023-08-30T08:20:18;11.52;;;6.53;;
58553;SDS011;48119;53.218;6.576;2023-08-30T08:22:54;13.70;;;7.20;;
58553;SDS011;48119;53.218;6.576;2023-08-30T08:25:20;9.77;;;6.47;;
58553;SDS011;48119;53.218;6.576;2023-08-30T08:27:50;12.55;;;7.38;;
58553;SDS011;48119;53.218;6.576;2023-08-30T08:30:22;10.18;;;6.72;;
58553;SDS011;48119;53.218;6.576;2023-08-30T08:33:18;10.13;;;7.18;;
58553;SDS011;48119;53.218;6.576;2023-08-30T08:36:19;11.13;;;7.07;;
58553;SDS011;48119;53.218;6.576;2023-08-30T08:38:45;12.25;;;7.10;;
58553;SDS011;48119;53.218;6.576;2023-08-30T08:41:12;13.95;;;8.02;;
58553;SDS011;48119;53.218;6.576;2023-08-30T08:44:02;10.52;;;6.95;;
58553;SDS011;48119;53.218;6.576;2023-08-30T08:46:55;14.75;;;7.45;;
58553;SDS011;48119;53.218;6.576;2023-08-30T08:49:30;10.73;;;7.35;;
58553;SDS011;48119;53.218;6.576;2023-08-30T08:51:56;10.18;;;7.15;;
58553;SDS011;48119;53.218;6.576;2023-08-30T08:54:25;15.55;;;6.32;;
58553;SDS011;48119;53.218;6.576;2023-08-30T08:57:05;10.82;;;6.50;;
58553;SDS011;48119;53.218;6.576;2023-08-30T08:59:32;10.35;;;7.05;;
58553;SDS011;48119;53.218;6.576;2023-08-30T09:01:59;16.73;;;7.35;;
58553;SDS011;48119;53.218;6.576;2023-08-30T09:04:32;11.23;;;7.38;;
58553;SDS011;48119;53.218;6.576;2023-08-30T09:07:26;12.30;;;6.18;;
58553;SDS011;48119;53.218;6.576;2023-08-30T09:10:21;12.00;;;6.68;;
58553;SDS011;48119;53.218;6.576;2023-08-30T09:12:59;10.35;;;6.38;;
58553;SDS011;48119;53.218;6.576;2023-08-30T09:15:35;9.32;;;6.28;;
58553;SDS011;48119;53.218;6.576;2023-08-30T09:18:13;11.32;;;7.07;;
58553;SDS011;48119;53.218;6.576;2023-08-30T09:24:02;10.82;;;6.97;;
58553;SDS011;48119;53.218;6.576;2023-08-30T09:26:33;10.95;;;7.00;;
58553;SDS011;48119;53.218;6.576;2023-08-30T09:29:04;11.20;;;6.97;;
58553;SDS011;48119;53.218;6.576;2023-08-30T09:31:37;11.55;;;7.20;;
58553;SDS011;48119;53.218;6.576;2023-08-30T09:34:25;9.98;;;5.72;;
58553;SDS011;48119;53.218;6.576;2023-08-30T09:36:57;9.23;;;6.75;;
58553;SDS011;48119;53.218;6.576;2023-08-30T09:39:27;9.15;;;6.55;;
58553;SDS011;48119;53.218;6.576;2023-08-30T09:41:53;9.57;;;6.32;;
58553;SDS011;48119;53.218;6.576;2023-08-30T09:44:32;9.80;;;5.95;;
58553;SDS011;48119;53.218;6.576;2023-08-30T09:47:03;11.98;;;6.15;;
58553;SDS011;48119;53.218;6.576;2023-08-30T09:49:33;8.10;;;5.68;;
58553;SDS011;48119;53.218;6.576;2023-08-30T09:52:16;8.40;;;5.72;;
58553;SDS011;48119;53.218;6.576;2023-08-30T09:54:51;9.90;;;5.88;;
58553;SDS011;48119;53.218;6.576;2023-08-30T09:57:27;8.68;;;6.00;;
58553;SDS011;48119;53.218;6.576;2023-08-30T10:00:02;10.02;;;6.28;;
58553;SDS011;48119;53.218;6.576;2023-08-30T10:02:30;9.40;;;6.18;;
58553;SDS011;48119;53.218;6.576;2023-08-30T10:05:06;8.77;;;5.80;;
58553;SDS011;48119;53.218;6.576;2023-08-30T10:07:37;9.45;;;7.30;;
58553;SDS011;48119;53.218;6.576;2023-08-30T10:10:05;11.32;;;6.82;;
58553;SDS011;48119;53.218;6.576;2023-08-30T10:12:34;9.88;;;6.70;;
58553;SDS011;48119;53.218;6.576;2023-08-30T10:15:12;10.05;;;6.43;;
58553;SDS011;48119;53.218;6.576;2023-08-30T10:17:40;8.30;;;5.78;;
58553;SDS011;48119;53.218;6.576;2023-08-30T10:20:12;11.00;;;6.18;;
58553;SDS011;48119;53.218;6.576;2023-08-30T10:22:50;9.15;;;5.68;;
58553;SDS011;48119;53.218;6.576;2023-08-30T10:25:21;9.25;;;5.70;;
58553;SDS011;48119;53.218;6.576;2023-08-30T10:28:01;10.02;;;6.65;;
58553;SDS011;48119;53.218;6.576;2023-08-30T10:33:14;9.52;;;6.10;;
58553;SDS011;48119;53.218;6.576;2023-08-30T10:36:02;10.13;;;6.95;;
58553;SDS011;48119;53.218;6.576;2023-08-30T10:38:34;9.75;;;5.70;;
58553;SDS011;48119;53.218;6.576;2023-08-30T10:41:08;9.95;;;5.57;;
58553;SDS011;48119;53.218;6.576;2023-08-30T10:44:13;9.70;;;5.97;;
58553;SDS011;48119;53.218;6.576;2023-08-30T10:46:41;8.65;;;6.35;;
58553;SDS011;48119;53.218;6.576;2023-08-30T10:49:19;14.20;;;7.43;;
58553;SDS011;48119;53.218;6.576;2023-08-30T10:51:53;11.38;;;6.97;;
58553;SDS011;48119;53.218;6.576;2023-08-30T10:54:24;11.13;;;6.95;;
58553;SDS011;48119;53.218;6.576;2023-08-30T10:57:13;7.90;;;6.43;;
58553;SDS011;48119;53.218;6.576;2023-08-30T11:00:04;8.68;;;6.43;;
58553;SDS011;48119;53.218;6.576;2023-08-30T11:02:38;10.23;;;6.28;;
58553;SDS011;48119;53.218;6.576;2023-08-30T11:05:11;7.88;;;5.32;;
58553;SDS011;48119;53.218;6.576;2023-08-30T11:07:42;8.77;;;5.68;;
58553;SDS011;48119;53.218;6.576;2023-08-30T11:10:09;6.95;;;5.05;;
58553;SDS011;48119;53.218;6.576;2023-08-30T11:12:41;7.60;;;4.78;;
58553;SDS011;48119;53.218;6.576;2023-08-30T11:15:32;7.38;;;4.97;;
58553;SDS011;48119;53.218;6.576;2023-08-30T11:18:04;6.95;;;4.72;;
58553;SDS011;48119;53.218;6.576;2023-08-30T11:20:35;7.63;;;4.65;;
58553;SDS011;48119;53.218;6.576;2023-08-30T11:25:53;6.15;;;4.03;;
58553;SDS011;48119;53.218;6.576;2023-08-30T11:28:22;5.95;;;4.65;;
58553;SDS011;48119;53.218;6.576;2023-08-30T11:30:57;6.65;;;4.20;;
58553;SDS011;48119;53.218;6.576;2023-08-30T11:33:25;5.30;;;3.83;;
58553;SDS011;48119;53.218;6.576;2023-08-30T11:35:56;6.47;;;4.47;;
58553;SDS011;48119;53.218;6.576;2023-08-30T11:38:26;11.00;;;5.18;;
58553;SDS011;48119;53.218;6.576;2023-08-30T11:41:03;6.25;;;4.47;;
58553;SDS011;48119;53.218;6.576;2023-08-30T11:43:59;5.63;;;3.75;;
58553;SDS011;48119;53.218;6.576;2023-08-30T11:46:38;5.63;;;3.70;;
58553;SDS011;48119;53.218;6.576;2023-08-30T11:49:04;6.03;;;3.50;;
58553;SDS011;48119;53.218;6.576;2023-08-30T11:51:38;6.07;;;3.85;;
58553;SDS011;48119;53.218;6.576;2023-08-30T11:54:17;6.05;;;3.90;;
58553;SDS011;48119;53.218;6.576;2023-08-30T11:57:02;5.82;;;3.17;;
58553;SDS011;48119;53.218;6.576;2023-08-30T11:59:28;5.32;;;3.53;;
58553;SDS011;48119;53.218;6.576;2023-08-30T12:01:59;6.65;;;3.38;;
58553;SDS011;48119;53.218;6.576;2023-08-30T12:04:40;5.28;;;3.47;;
58553;SDS011;48119;53.218;6.576;2023-08-30T12:07:20;5.65;;;3.78;;
58553;SDS011;48119;53.218;6.576;2023-08-30T12:10:08;5.13;;;3.42;;
58553;SDS011;48119;53.218;6.576;2023-08-30T12:12:44;5.47;;;3.75;;
58553;SDS011;48119;53.218;6.576;2023-08-30T12:15:15;4.95;;;4.03;;
58553;SDS011;48119;53.218;6.576;2023-08-30T12:18:06;6.13;;;3.55;;
58553;SDS011;48119;53.218;6.576;2023-08-30T12:20:35;7.30;;;4.53;;
58553;SDS011;48119;53.218;6.576;2023-08-30T12:23:23;4.53;;;3.47;;
58553;SDS011;48119;53.218;6.576;2023-08-30T12:26:06;4.47;;;3.38;;
58553;SDS011;48119;53.218;6.576;2023-08-30T12:28:37;6.00;;;4.30;;
58553;SDS011;48119;53.218;6.576;2023-08-30T12:31:09;5.63;;;4.03;;
58553;SDS011;48119;53.218;6.576;2023-08-30T12:33:40;7.13;;;4.82;;
58553;SDS011;48119;53.218;6.576;2023-08-30T12:36:24;8.80;;;5.18;;
58553;SDS011;48119;53.218;6.576;2023-08-30T12:39:16;6.65;;;4.88;;
58553;SDS011;48119;53.218;6.576;2023-08-30T12:41:47;7.32;;;4.97;;
58553;SDS011;48119;53.218;6.576;2023-08-30T12:44:38;7.82;;;5.65;;
58553;SDS011;48119;53.218;6.576;2023-08-30T12:47:07;7.10;;;5.28;;
58553;SDS011;48119;53.218;6.576;2023-08-30T12:49:56;8.05;;;5.38;;
58553;SDS011;48119;53.218;6.576;2023-08-30T12:52:27;8.15;;;6.00;;
58553;SDS011;48119;53.218;6.576;2023-08-30T12:54:53;7.70;;;5.50;;
58553;SDS011;48119;53.218;6.576;2023-08-30T12:57:22;7.18;;;4.90;;
58553;SDS011;48119;53.218;6.576;2023-08-30T13:02:40;9.77;;;6.10;;
58553;SDS011;48119;53.218;6.576;2023-08-30T13:05:12;9.63;;;6.55;;
58553;SDS011;48119;53.218;6.576;2023-08-30T13:07:50;8.43;;;6.35;;
58553;SDS011;48119;53.218;6.576;2023-08-30T13:10:18;7.43;;;5.70;;
58553;SDS011;48119;53.218;6.576;2023-08-30T13:12:52;8.50;;;6.95;;
58553;SDS011;48119;53.218;6.576;2023-08-30T13:15:20;10.57;;;7.20;;
58553;SDS011;48119;53.218;6.576;2023-08-30T13:17:46;9.13;;;7.10;;
58553;SDS011;48119;53.218;6.576;2023-08-30T13:20:20;8.23;;;6.22;;
58553;SDS011;48119;53.218;6.576;2023-08-30T13:23:26;10.13;;;7.10;;
58553;SDS011;48119;53.218;6.576;2023-08-30T13:25:57;9.95;;;7.65;;
58553;SDS011;48119;53.218;6.576;2023-08-30T13:28:25;9.30;;;7.13;;
58553;SDS011;48119;53.218;6.576;2023-08-30T13:31:01;9.98;;;7.50;;
58553;SDS011;48119;53.218;6.576;2023-08-30T13:33:48;8.63;;;6.55;;
58553;SDS011;48119;53.218;6.576;2023-08-30T13:36:19;7.85;;;5.82;;
58553;SDS011;48119;53.218;6.576;2023-08-30T13:39:00;7.85;;;6.00;;
58553;SDS011;48119;53.218;6.576;2023-08-30T13:41:38;6.85;;;5.97;;
58553;SDS011;48119;53.218;6.576;2023-08-30T13:44:22;6.15;;;4.70;;
58553;SDS011;48119;53.218;6.576;2023-08-30T13:46:56;7.35;;;5.90;;
58553;SDS011;48119;53.218;6.576;2023-08-30T13:49:40;6.82;;;5.45;;
58553;SDS011;48119;53.218;6.576;2023-08-30T13:52:35;7.68;;;5.45;;
58553;SDS011;48119;53.218;6.576;2023-08-30T13:55:04;6.82;;;4.70;;
58553;SDS011;48119;53.218;6.576;2023-08-30T13:57:30;6.45;;;4.30;;
58553;SDS011;48119;53.218;6.576;2023-08-30T13:59:59;6.18;;;4.30;;
58553;SDS011;48119;53.218;6.576;2023-08-30T14:02:35;7.88;;;5.20;;
58553;SDS011;48119;53.218;6.576;2023-08-30T14:05:09;7.03;;;5.07;;
58553;SDS011;48119;53.218;6.576;2023-08-30T14:07:43;5.78;;;4.28;;
58553;SDS011;48119;53.218;6.576;2023-08-30T14:10:15;8.13;;;5.20;;
58553;SDS011;48119;53.218;6.576;2023-08-30T14:12:46;6.38;;;4.57;;
58553;SDS011;48119;53.218;6.576;2023-08-30T14:15:22;7.05;;;5.15;;
58553;SDS011;48119;53.218;6.576;2023-08-30T14:17:54;6.90;;;5.18;;
58553;SDS011;48119;53.218;6.576;2023-08-30T14:20:22;6.65;;;5.25;;
58553;SDS011;48119;53.218;6.576;2023-08-30T14:23:00;8.40;;;5.63;;
58553;SDS011;48119;53.218;6.576;2023-08-30T14:25:29;7.47;;;5.28;;
58553;SDS011;48119;53.218;6.576;2023-08-30T14:27:58;6.88;;;5.82;;
58553;SDS011;48119;53.218;6.576;2023-08-30T14:30:31;7.35;;;5.40;;
58553;SDS011;48119;53.218;6.576;2023-08-30T14:33:20;7.72;;;5.88;;
58553;SDS011;48119;53.218;6.576;2023-08-30T14:35:49;7.70;;;5.95;;
58553;SDS011;48119;53.218;6.576;2023-08-30T14:38:23;9.40;;;6.63;;
58553;SDS011;48119;53.218;6.576;2023-08-30T14:40:59;10.77;;;7.85;;
58553;SDS011;48119;53.218;6.576;2023-08-30T14:43:37;9.02;;;7.63;;
58553;SDS011;48119;53.218;6.576;2023-08-30T14:46:23;10.20;;;7.72;;
58553;SDS011;48119;53.218;6.576;2023-08-30T14:49:15;8.50;;;7.32;;
58553;SDS011;48119;53.218;6.576;2023-08-30T14:51:59;8.07;;;6.50;;
58553;SDS011;48119;53.218;6.576;2023-08-30T14:54:35;9.32;;;7.35;;
58553;SDS011;48119;53.218;6.576;2023-08-30T14:57:24;10.80;;;7.40;;
58553;SDS011;48119;53.218;6.576;2023-08-30T14:59:57;9.20;;;6.28;;
58553;SDS011;48119;53.218;6.576;2023-08-30T15:02:26;10.02;;;6.78;;
58553;SDS011;48119;53.218;6.576;2023-08-30T15:05:02;7.95;;;6.10;;
58553;SDS011;48119;53.218;6.576;2023-08-30T15:07:47;7.10;;;5.82;;
58553;SDS011;48119;53.218;6.576;2023-08-30T15:11:11;8.68;;;6.57;;
58553;SDS011;48119;53.218;6.576;2023-08-30T15:13:45;6.43;;;5.57;;
58553;SDS011;48119;53.218;6.576;2023-08-30T15:16:30;6.82;;;5.25;;
58553;SDS011;48119;53.218;6.576;2023-08-30T15:19:02;5.53;;;4.28;;
58553;SDS011;48119;53.218;6.576;2023-08-30T15:21:37;6.82;;;3.45;;
58553;SDS011;48119;53.218;6.576;2023-08-30T15:24:43;5.68;;;3.75;;
58553;SDS011;48119;53.218;6.576;2023-08-30T15:27:17;4.47;;;3.70;;
58553;SDS011;48119;53.218;6.576;2023-08-30T15:29:47;4.47;;;3.13;;
58553;SDS011;48119;53.218;6.576;2023-08-30T15:32:29;4.65;;;2.65;;
58553;SDS011;48119;53.218;6.576;2023-08-30T15:34:57;5.82;;;3.00;;
58553;SDS011;48119;53.218;6.576;2023-08-30T15:37:38;4.53;;;3.30;;
58553;SDS011;48119;53.218;6.576;2023-08-30T15:40:04;4.22;;;2.80;;
58553;SDS011;48119;53.218;6.576;2023-08-30T15:42:55;4.40;;;3.10;;
58553;SDS011;48119;53.218;6.576;2023-08-30T15:45:43;5.30;;;3.53;;
58553;SDS011;48119;53.218;6.576;2023-08-30T15:48:38;4.05;;;2.75;;
58553;SDS011;48119;53.218;6.576;2023-08-30T15:51:05;3.72;;;3.17;;
58553;SDS011;48119;53.218;6.576;2023-08-30T15:53:34;4.65;;;3.50;;
58553;SDS011;48119;53.218;6.576;2023-08-30T15:56:19;6.82;;;4.00;;
58553;SDS011;48119;53.218;6.576;2023-08-30T15:58:51;7.60;;;4.90;;
58553;SDS011;48119;53.218;6.576;2023-08-30T16:01:57;5.23;;;3.97;;
58553;SDS011;48119;53.218;6.576;2023-08-30T16:04:51;6.45;;;4.57;;
58553;SDS011;48119;53.218;6.576;2023-08-30T16:07:38;6.47;;;4.05;;
58553;SDS011;48119;53.218;6.576;2023-08-30T16:10:09;5.85;;;3.67;;
58553;SDS011;48119;53.218;6.576;2023-08-30T16:13:08;7.55;;;3.72;;
58553;SDS011;48119;53.218;6.576;2023-08-30T16:16:04;9.63;;;5.28;;
58553;SDS011;48119;53.218;6.576;2023-08-30T16:18:44;5.35;;;4.68;;
58553;SDS011;48119;53.218;6.576;2023-08-30T16:27:02;7.90;;;5.80;;
58553;SDS011;48119;53.218;6.576;2023-08-30T16:29:41;7.88;;;5.28;;
58553;SDS011;48119;53.218;6.576;2023-08-30T16:32:10;10.15;;;5.53;;
58553;SDS011;48119;53.218;6.576;2023-08-30T16:34:39;6.65;;;4.07;;
58553;SDS011;48119;53.218;6.576;2023-08-30T16:37:30;6.30;;;3.20;;